sensor_id;sensor_type;location;lat;lon;timestamp;P1;durP1;ratioP1;P2;durP2;ratioP2
17173;SDS011;8702;48.130;-1.696;2022-08-01T00:02:17;6.50;;;2.70;;
17173;SDS011;8702;48.130;-1.696;2022-08-01T00:04:44;5.73;;;2.40;;
17173;SDS011;8702;48.130;-1.696;2022-08-01T00:07:11;7.57;;;2.83;;
17173;SDS011;8702;48.130;-1.696;2022-08-01T00:09:40;5.07;;;3.03;;
17173;SDS011;8702;48.130;-1.696;2022-08-01T00:12:07;7.37;;;3.10;;
17173;SDS011;8702;48.130;-1.696;2022-08-01T00:14:34;7.37;;;2.50;;
17173;SDS011;8702;48.130;-1.696;2022-08-01T00:17:01;6.63;;;2.80;;
17173;SDS011;8702;48.130;-1.696;2022-08-01T00:19:28;4.73;;;2.40;;
17173;SDS011;8702;48.130;-1.696;2022-08-01T00:21:55;4.43;;;2.60;;
17173;SDS011;8702;48.130;-1.696;2022-08-01T00:24:22;5.47;;;3.10;;
17173;SDS011;8702;48.130;-1.696;2022-08-01T00:26:51;6.73;;;3.23;;
17173;SDS011;8702;48.130;-1.696;2022-08-01T00:29:18;4.40;;;2.60;;
17173;SDS011;8702;48.130;-1.696;2022-08-01T00:31:45;7.27;;;3.10;;
17173;SDS011;8702;48.130;-1.696;2022-08-01T00:34:12;6.03;;;2.87;;
17173;SDS011;8702;48.130;-1.696;2022-08-01T00:36:39;7.57;;;3.03;;
17173;SDS011;8702;48.130;-1.696;2022-08-01T00:39:06;5.73;;;2.50;;
17173;SDS011;8702;48.130;-1.696;2022-08-01T00:41:33;6.00;;;2.17;;
17173;SDS011;8702;48.130;-1.696;2022-08-01T00:44:03;4.60;;;2.07;;
17173;SDS011;8702;48.130;-1.696;2022-08-01T00:46:30;3.27;;;2.13;;
17173;SDS011;8702;48.130;-1.696;2022-08-01T00:48:57;4.30;;;2.40;;
17173;SDS011;8702;48.130;-1.696;2022-08-01T00:51:24;4.73;;;2.60;;
17173;SDS011;8702;48.130;-1.696;2022-08-01T00:53:52;4.97;;;2.80;;
17173;SDS011;8702;48.130;-1.696;2022-08-01T00:56:20;5.30;;;3.60;;
17173;SDS011;8702;48.130;-1.696;2022-08-01T00:58:47;5.70;;;3.60;;
17173;SDS011;8702;48.130;-1.696;2022-08-01T01:01:16;6.60;;;3.10;;
17173;SDS011;8702;48.130;-1.696;2022-08-01T01:03:45;4.57;;;2.90;;
17173;SDS011;8702;48.130;-1.696;2022-08-01T01:06:19;5.13;;;3.03;;
17173;SDS011;8702;48.130;-1.696;2022-08-01T01:11:57;6.23;;;3.73;;
17173;SDS011;8702;48.130;-1.696;2022-08-01T01:14:33;6.17;;;3.50;;
17173;SDS011;8702;48.130;-1.696;2022-08-01T01:17:12;5.10;;;2.87;;
17173;SDS011;8702;48.130;-1.696;2022-08-01T01:19:45;11.27;;;3.00;;
17173;SDS011;8702;48.130;-1.696;2022-08-01T01:22:21;5.97;;;3.40;;
17173;SDS011;8702;48.130;-1.696;2022-08-01T01:24:58;6.27;;;3.13;;
17173;SDS011;8702;48.130;-1.696;2022-08-01T01:27:46;6.10;;;3.03;;
17173;SDS011;8702;48.130;-1.696;2022-08-01T01:30:19;7.03;;;2.40;;
17173;SDS011;8702;48.130;-1.696;2022-08-01T01:32:48;3.97;;;2.43;;
17173;SDS011;8702;48.130;-1.696;2022-08-01T01:35:19;4.20;;;2.60;;
17173;SDS011;8702;48.130;-1.696;2022-08-01T01:37:53;5.90;;;2.43;;
17173;SDS011;8702;48.130;-1.696;2022-08-01T01:40:24;4.07;;;2.40;;
17173;SDS011;8702;48.130;-1.696;2022-08-01T01:42:53;4.20;;;2.70;;
17173;SDS011;8702;48.130;-1.696;2022-08-01T01:45:24;3.87;;;2.53;;
17173;SDS011;8702;48.130;-1.696;2022-08-01T01:47:52;5.50;;;2.60;;
17173;SDS011;8702;48.130;-1.696;2022-08-01T01:50:20;5.20;;;2.57;;
17173;SDS011;8702;48.130;-1.696;2022-08-01T01:52:48;5.63;;;2.53;;
17173;SDS011;8702;48.130;-1.696;2022-08-01T01:55:17;5.57;;;2.57;;
17173;SDS011;8702;48.130;-1.696;2022-08-01T01:57:47;2.97;;;2.30;;
17173;SDS011;8702;48.130;-1.696;2022-08-01T02:00:15;7.20;;;2.23;;
17173;SDS011;8702;48.130;-1.696;2022-08-01T02:02:45;4.80;;;2.50;;
17173;SDS011;8702;48.130;-1.696;2022-08-01T02:05:13;5.33;;;2.30;;
17173;SDS011;8702;48.130;-1.696;2022-08-01T02:07:41;5.63;;;2.43;;
17173;SDS011;8702;48.130;-1.696;2022-08-01T02:10:09;4.07;;;2.37;;
17173;SDS011;8702;48.130;-1.696;2022-08-01T02:12:39;4.93;;;2.33;;
17173;SDS011;8702;48.130;-1.696;2022-08-01T02:15:10;5.47;;;2.20;;
17173;SDS011;8702;48.130;-1.696;2022-08-01T02:17:40;5.00;;;2.10;;
17173;SDS011;8702;48.130;-1.696;2022-08-01T02:20:11;4.73;;;2.17;;
17173;SDS011;8702;48.130;-1.696;2022-08-01T02:22:41;3.07;;;1.90;;
17173;SDS011;8702;48.130;-1.696;2022-08-01T02:25:11;4.80;;;1.73;;
17173;SDS011;8702;48.130;-1.696;2022-08-01T02:27:43;3.50;;;2.10;;
17173;SDS011;8702;48.130;-1.696;2022-08-01T02:30:16;3.57;;;1.53;;
17173;SDS011;8702;48.130;-1.696;2022-08-01T02:32:45;2.37;;;1.70;;
17173;SDS011;8702;48.130;-1.696;2022-08-01T02:35:19;5.43;;;2.10;;
17173;SDS011;8702;48.130;-1.696;2022-08-01T02:37:49;2.67;;;1.97;;
17173;SDS011;8702;48.130;-1.696;2022-08-01T02:40:18;1.63;;;1.47;;
17173;SDS011;8702;48.130;-1.696;2022-08-01T02:42:47;3.37;;;1.80;;
17173;SDS011;8702;48.130;-1.696;2022-08-01T02:45:17;4.30;;;2.10;;
17173;SDS011;8702;48.130;-1.696;2022-08-01T02:47:45;2.57;;;1.73;;
17173;SDS011;8702;48.130;-1.696;2022-08-01T02:50:14;2.57;;;1.60;;
17173;SDS011;8702;48.130;-1.696;2022-08-01T02:52:44;7.30;;;1.80;;
17173;SDS011;8702;48.130;-1.696;2022-08-01T02:55:14;4.23;;;2.10;;
17173;SDS011;8702;48.130;-1.696;2022-08-01T02:57:43;3.23;;;1.77;;
17173;SDS011;8702;48.130;-1.696;2022-08-01T03:00:12;4.83;;;2.00;;
17173;SDS011;8702;48.130;-1.696;2022-08-01T03:02:40;3.83;;;1.63;;
17173;SDS011;8702;48.130;-1.696;2022-08-01T03:05:07;4.70;;;1.70;;
17173;SDS011;8702;48.130;-1.696;2022-08-01T03:07:36;5.93;;;2.47;;
17173;SDS011;8702;48.130;-1.696;2022-08-01T03:10:05;1.90;;;1.60;;
17173;SDS011;8702;48.130;-1.696;2022-08-01T03:12:34;2.70;;;1.60;;
17173;SDS011;8702;48.130;-1.696;2022-08-01T03:15:04;1.60;;;1.47;;
17173;SDS011;8702;48.130;-1.696;2022-08-01T03:17:32;2.47;;;1.50;;
17173;SDS011;8702;48.130;-1.696;2022-08-01T03:20:01;2.17;;;1.47;;
17173;SDS011;8702;48.130;-1.696;2022-08-01T03:22:30;1.50;;;1.40;;
17173;SDS011;8702;48.130;-1.696;2022-08-01T03:25:00;2.40;;;1.43;;
17173;SDS011;8702;48.130;-1.696;2022-08-01T03:27:29;1.23;;;1.03;;
17173;SDS011;8702;48.130;-1.696;2022-08-01T03:29:57;1.40;;;1.00;;
17173;SDS011;8702;48.130;-1.696;2022-08-01T03:32:26;1.90;;;1.17;;
17173;SDS011;8702;48.130;-1.696;2022-08-01T03:34:54;2.80;;;1.10;;
17173;SDS011;8702;48.130;-1.696;2022-08-01T03:37:21;2.70;;;1.10;;
17173;SDS011;8702;48.130;-1.696;2022-08-01T03:39:53;1.23;;;1.13;;
17173;SDS011;8702;48.130;-1.696;2022-08-01T03:42:24;1.70;;;1.20;;
17173;SDS011;8702;48.130;-1.696;2022-08-01T03:44:57;1.20;;;1.00;;
17173;SDS011;8702;48.130;-1.696;2022-08-01T03:47:30;0.97;;;0.97;;
17173;SDS011;8702;48.130;-1.696;2022-08-01T03:49:59;0.90;;;0.83;;
17173;SDS011;8702;48.130;-1.696;2022-08-01T03:52:29;1.20;;;1.07;;
17173;SDS011;8702;48.130;-1.696;2022-08-01T03:54:58;1.00;;;0.80;;
17173;SDS011;8702;48.130;-1.696;2022-08-01T03:57:28;1.07;;;0.90;;
17173;SDS011;8702;48.130;-1.696;2022-08-01T03:59:57;0.90;;;0.80;;
17173;SDS011;8702;48.130;-1.696;2022-08-01T04:02:26;3.20;;;0.70;;
17173;SDS011;8702;48.130;-1.696;2022-08-01T04:04:54;1.07;;;0.70;;
17173;SDS011;8702;48.130;-1.696;2022-08-01T04:07:21;0.90;;;0.90;;
17173;SDS011;8702;48.130;-1.696;2022-08-01T04:09:49;0.87;;;0.73;;
17173;SDS011;8702;48.130;-1.696;2022-08-01T04:12:16;1.27;;;1.00;;
17173;SDS011;8702;48.130;-1.696;2022-08-01T04:14:43;0.77;;;0.70;;
17173;SDS011;8702;48.130;-1.696;2022-08-01T04:17:12;0.97;;;0.80;;
17173;SDS011;8702;48.130;-1.696;2022-08-01T04:19:40;0.60;;;0.60;;
17173;SDS011;8702;48.130;-1.696;2022-08-01T04:22:08;1.20;;;0.90;;
17173;SDS011;8702;48.130;-1.696;2022-08-01T04:24:36;0.70;;;0.70;;
17173;SDS011;8702;48.130;-1.696;2022-08-01T04:27:04;1.23;;;0.80;;
17173;SDS011;8702;48.130;-1.696;2022-08-01T04:29:36;0.80;;;0.60;;
17173;SDS011;8702;48.130;-1.696;2022-08-01T04:32:08;0.60;;;0.57;;
17173;SDS011;8702;48.130;-1.696;2022-08-01T04:34:40;0.83;;;0.60;;
17173;SDS011;8702;48.130;-1.696;2022-08-01T04:37:11;1.87;;;0.90;;
17173;SDS011;8702;48.130;-1.696;2022-08-01T04:39:42;0.60;;;0.60;;
17173;SDS011;8702;48.130;-1.696;2022-08-01T04:42:11;0.70;;;0.50;;
17173;SDS011;8702;48.130;-1.696;2022-08-01T04:44:40;0.43;;;0.43;;
17173;SDS011;8702;48.130;-1.696;2022-08-01T04:47:07;0.40;;;0.40;;
17173;SDS011;8702;48.130;-1.696;2022-08-01T04:49:36;0.57;;;0.57;;
17173;SDS011;8702;48.130;-1.696;2022-08-01T04:52:05;0.30;;;0.30;;
17173;SDS011;8702;48.130;-1.696;2022-08-01T04:54:33;0.40;;;0.40;;
17173;SDS011;8702;48.130;-1.696;2022-08-01T04:57:02;0.70;;;0.60;;
17173;SDS011;8702;48.130;-1.696;2022-08-01T04:59:30;1.37;;;0.50;;
17173;SDS011;8702;48.130;-1.696;2022-08-01T05:02:07;0.50;;;0.50;;
17173;SDS011;8702;48.130;-1.696;2022-08-01T05:04:35;0.50;;;0.50;;
17173;SDS011;8702;48.130;-1.696;2022-08-01T05:07:04;0.53;;;0.53;;
17173;SDS011;8702;48.130;-1.696;2022-08-01T05:09:33;1.00;;;0.60;;
17173;SDS011;8702;48.130;-1.696;2022-08-01T05:12:01;1.73;;;0.60;;
17173;SDS011;8702;48.130;-1.696;2022-08-01T05:14:29;1.13;;;0.60;;
17173;SDS011;8702;48.130;-1.696;2022-08-01T05:16:57;0.70;;;0.70;;
17173;SDS011;8702;48.130;-1.696;2022-08-01T05:19:24;1.13;;;0.80;;
17173;SDS011;8702;48.130;-1.696;2022-08-01T05:21:52;1.03;;;0.80;;
17173;SDS011;8702;48.130;-1.696;2022-08-01T05:24:20;0.77;;;0.77;;
17173;SDS011;8702;48.130;-1.696;2022-08-01T05:26:48;0.73;;;0.70;;
17173;SDS011;8702;48.130;-1.696;2022-08-01T05:29:15;1.33;;;0.60;;
17173;SDS011;8702;48.130;-1.696;2022-08-01T05:31:42;0.60;;;0.60;;
17173;SDS011;8702;48.130;-1.696;2022-08-01T05:34:09;1.60;;;0.77;;
17173;SDS011;8702;48.130;-1.696;2022-08-01T05:36:36;0.90;;;0.80;;
17173;SDS011;8702;48.130;-1.696;2022-08-01T05:39:03;1.10;;;0.70;;
17173;SDS011;8702;48.130;-1.696;2022-08-01T05:41:31;0.73;;;0.70;;
17173;SDS011;8702;48.130;-1.696;2022-08-01T05:43:58;0.70;;;0.70;;
17173;SDS011;8702;48.130;-1.696;2022-08-01T05:46:25;1.03;;;0.83;;
17173;SDS011;8702;48.130;-1.696;2022-08-01T05:48:52;0.90;;;0.60;;
17173;SDS011;8702;48.130;-1.696;2022-08-01T05:51:19;1.80;;;0.57;;
17173;SDS011;8702;48.130;-1.696;2022-08-01T05:53:46;0.80;;;0.60;;
17173;SDS011;8702;48.130;-1.696;2022-08-01T05:56:13;1.63;;;0.70;;
17173;SDS011;8702;48.130;-1.696;2022-08-01T05:58:42;1.07;;;0.70;;
17173;SDS011;8702;48.130;-1.696;2022-08-01T06:01:09;0.87;;;0.60;;
17173;SDS011;8702;48.130;-1.696;2022-08-01T06:03:36;0.50;;;0.50;;
17173;SDS011;8702;48.130;-1.696;2022-08-01T06:06:03;0.77;;;0.77;;
17173;SDS011;8702;48.130;-1.696;2022-08-01T06:08:30;0.70;;;0.70;;
17173;SDS011;8702;48.130;-1.696;2022-08-01T06:10:58;0.70;;;0.70;;
17173;SDS011;8702;48.130;-1.696;2022-08-01T06:13:25;1.70;;;0.90;;
17173;SDS011;8702;48.130;-1.696;2022-08-01T06:15:53;0.60;;;0.60;;
17173;SDS011;8702;48.130;-1.696;2022-08-01T06:18:20;1.83;;;0.77;;
17173;SDS011;8702;48.130;-1.696;2022-08-01T06:20:49;1.07;;;0.70;;
17173;SDS011;8702;48.130;-1.696;2022-08-01T06:23:16;1.03;;;0.90;;
17173;SDS011;8702;48.130;-1.696;2022-08-01T06:25:43;0.77;;;0.60;;
17173;SDS011;8702;48.130;-1.696;2022-08-01T06:28:10;0.60;;;0.60;;
17173;SDS011;8702;48.130;-1.696;2022-08-01T06:30:37;2.07;;;0.77;;
17173;SDS011;8702;48.130;-1.696;2022-08-01T06:33:05;1.77;;;0.57;;
17173;SDS011;8702;48.130;-1.696;2022-08-01T06:35:33;0.80;;;0.60;;
17173;SDS011;8702;48.130;-1.696;2022-08-01T06:38:01;0.60;;;0.60;;
17173;SDS011;8702;48.130;-1.696;2022-08-01T06:40:28;2.03;;;0.63;;
17173;SDS011;8702;48.130;-1.696;2022-08-01T06:42:55;1.00;;;0.70;;
17173;SDS011;8702;48.130;-1.696;2022-08-01T06:45:22;0.77;;;0.70;;
17173;SDS011;8702;48.130;-1.696;2022-08-01T06:47:51;2.10;;;0.70;;
17173;SDS011;8702;48.130;-1.696;2022-08-01T06:50:19;0.70;;;0.70;;
17173;SDS011;8702;48.130;-1.696;2022-08-01T06:52:46;0.50;;;0.50;;
17173;SDS011;8702;48.130;-1.696;2022-08-01T06:55:13;0.60;;;0.60;;
17173;SDS011;8702;48.130;-1.696;2022-08-01T06:57:47;1.37;;;0.73;;
17173;SDS011;8702;48.130;-1.696;2022-08-01T07:00:16;0.50;;;0.50;;
17173;SDS011;8702;48.130;-1.696;2022-08-01T07:02:48;1.17;;;1.00;;
17173;SDS011;8702;48.130;-1.696;2022-08-01T07:05:15;1.13;;;1.03;;
17173;SDS011;8702;48.130;-1.696;2022-08-01T07:07:43;2.80;;;0.70;;
17173;SDS011;8702;48.130;-1.696;2022-08-01T07:10:10;1.60;;;0.93;;
17173;SDS011;8702;48.130;-1.696;2022-08-01T07:12:38;1.20;;;0.80;;
17173;SDS011;8702;48.130;-1.696;2022-08-01T07:15:06;2.07;;;0.70;;
17173;SDS011;8702;48.130;-1.696;2022-08-01T07:17:36;1.17;;;0.70;;
17173;SDS011;8702;48.130;-1.696;2022-08-01T07:20:04;1.80;;;0.80;;
17173;SDS011;8702;48.130;-1.696;2022-08-01T07:22:33;1.00;;;0.90;;
17173;SDS011;8702;48.130;-1.696;2022-08-01T07:25:01;2.20;;;0.50;;
17173;SDS011;8702;48.130;-1.696;2022-08-01T07:27:29;1.10;;;0.63;;
17173;SDS011;8702;48.130;-1.696;2022-08-01T07:29:56;1.47;;;0.90;;
17173;SDS011;8702;48.130;-1.696;2022-08-01T07:32:23;0.77;;;0.70;;
17173;SDS011;8702;48.130;-1.696;2022-08-01T07:34:50;1.17;;;0.83;;
17173;SDS011;8702;48.130;-1.696;2022-08-01T07:37:17;0.70;;;0.70;;
17173;SDS011;8702;48.130;-1.696;2022-08-01T07:39:44;1.07;;;0.83;;
17173;SDS011;8702;48.130;-1.696;2022-08-01T07:42:13;5.07;;;1.00;;
17173;SDS011;8702;48.130;-1.696;2022-08-01T07:44:40;1.33;;;0.80;;
17173;SDS011;8702;48.130;-1.696;2022-08-01T07:47:07;0.70;;;0.70;;
17173;SDS011;8702;48.130;-1.696;2022-08-01T07:49:34;0.70;;;0.70;;
17173;SDS011;8702;48.130;-1.696;2022-08-01T07:52:01;0.80;;;0.70;;
17173;SDS011;8702;48.130;-1.696;2022-08-01T07:54:28;0.83;;;0.70;;
17173;SDS011;8702;48.130;-1.696;2022-08-01T07:56:56;1.80;;;0.60;;
17173;SDS011;8702;48.130;-1.696;2022-08-01T07:59:24;0.67;;;0.67;;
17173;SDS011;8702;48.130;-1.696;2022-08-01T08:01:51;2.67;;;0.80;;
17173;SDS011;8702;48.130;-1.696;2022-08-01T08:04:18;0.73;;;0.73;;
17173;SDS011;8702;48.130;-1.696;2022-08-01T08:06:45;0.70;;;0.70;;
17173;SDS011;8702;48.130;-1.696;2022-08-01T08:09:14;1.30;;;0.90;;
17173;SDS011;8702;48.130;-1.696;2022-08-01T08:11:41;1.43;;;1.10;;
17173;SDS011;8702;48.130;-1.696;2022-08-01T08:14:09;1.00;;;0.90;;
17173;SDS011;8702;48.130;-1.696;2022-08-01T08:16:38;0.90;;;0.90;;
17173;SDS011;8702;48.130;-1.696;2022-08-01T08:19:05;1.00;;;0.90;;
17173;SDS011;8702;48.130;-1.696;2022-08-01T08:21:32;0.80;;;0.80;;
17173;SDS011;8702;48.130;-1.696;2022-08-01T08:23:59;1.93;;;0.90;;
17173;SDS011;8702;48.130;-1.696;2022-08-01T08:26:43;1.47;;;1.07;;
17173;SDS011;8702;48.130;-1.696;2022-08-01T08:29:10;1.13;;;0.90;;
17173;SDS011;8702;48.130;-1.696;2022-08-01T08:31:39;2.00;;;1.53;;
17173;SDS011;8702;48.130;-1.696;2022-08-01T08:34:06;1.73;;;0.90;;
17173;SDS011;8702;48.130;-1.696;2022-08-01T08:36:33;0.80;;;0.80;;
17173;SDS011;8702;48.130;-1.696;2022-08-01T08:39:00;0.90;;;0.90;;
17173;SDS011;8702;48.130;-1.696;2022-08-01T08:41:28;1.10;;;0.83;;
17173;SDS011;8702;48.130;-1.696;2022-08-01T08:43:56;2.90;;;1.00;;
17173;SDS011;8702;48.130;-1.696;2022-08-01T08:46:24;1.47;;;1.07;;
17173;SDS011;8702;48.130;-1.696;2022-08-01T08:48:54;1.63;;;0.93;;
17173;SDS011;8702;48.130;-1.696;2022-08-01T08:51:23;1.90;;;1.13;;
17173;SDS011;8702;48.130;-1.696;2022-08-01T08:53:52;1.77;;;0.80;;
17173;SDS011;8702;48.130;-1.696;2022-08-01T08:56:23;1.00;;;0.90;;
17173;SDS011;8702;48.130;-1.696;2022-08-01T08:58:51;0.93;;;0.93;;
17173;SDS011;8702;48.130;-1.696;2022-08-01T09:01:18;0.80;;;0.80;;
17173;SDS011;8702;48.130;-1.696;2022-08-01T09:03:45;2.40;;;0.97;;
17173;SDS011;8702;48.130;-1.696;2022-08-01T09:06:15;1.20;;;1.10;;
17173;SDS011;8702;48.130;-1.696;2022-08-01T09:08:42;1.10;;;1.00;;
17173;SDS011;8702;48.130;-1.696;2022-08-01T09:11:09;1.20;;;1.03;;
17173;SDS011;8702;48.130;-1.696;2022-08-01T09:13:36;2.03;;;1.20;;
17173;SDS011;8702;48.130;-1.696;2022-08-01T09:16:03;1.10;;;1.00;;
17173;SDS011;8702;48.130;-1.696;2022-08-01T09:18:32;0.93;;;0.93;;
17173;SDS011;8702;48.130;-1.696;2022-08-01T09:21:13;1.47;;;1.37;;
17173;SDS011;8702;48.130;-1.696;2022-08-01T09:23:44;1.40;;;1.20;;
17173;SDS011;8702;48.130;-1.696;2022-08-01T09:26:12;1.13;;;1.00;;
17173;SDS011;8702;48.130;-1.696;2022-08-01T09:28:40;1.00;;;0.83;;
17173;SDS011;8702;48.130;-1.696;2022-08-01T09:31:08;1.20;;;1.10;;
17173;SDS011;8702;48.130;-1.696;2022-08-01T09:33:47;1.90;;;1.20;;
17173;SDS011;8702;48.130;-1.696;2022-08-01T09:36:16;2.03;;;1.50;;
17173;SDS011;8702;48.130;-1.696;2022-08-01T09:38:44;1.90;;;1.23;;
17173;SDS011;8702;48.130;-1.696;2022-08-01T09:41:11;1.60;;;1.43;;
17173;SDS011;8702;48.130;-1.696;2022-08-01T09:43:38;2.03;;;1.30;;
17173;SDS011;8702;48.130;-1.696;2022-08-01T09:46:05;1.10;;;1.00;;
17173;SDS011;8702;48.130;-1.696;2022-08-01T09:48:36;1.73;;;1.20;;
17173;SDS011;8702;48.130;-1.696;2022-08-01T09:51:05;1.70;;;1.20;;
17173;SDS011;8702;48.130;-1.696;2022-08-01T09:53:47;3.90;;;1.47;;
17173;SDS011;8702;48.130;-1.696;2022-08-01T09:56:15;1.37;;;1.10;;
17173;SDS011;8702;48.130;-1.696;2022-08-01T09:58:49;1.53;;;1.37;;
17173;SDS011;8702;48.130;-1.696;2022-08-01T10:01:17;1.53;;;1.43;;
17173;SDS011;8702;48.130;-1.696;2022-08-01T10:03:47;1.67;;;1.57;;
17173;SDS011;8702;48.130;-1.696;2022-08-01T10:06:29;1.50;;;1.40;;
17173;SDS011;8702;48.130;-1.696;2022-08-01T10:08:58;1.97;;;1.33;;
17173;SDS011;8702;48.130;-1.696;2022-08-01T10:11:25;1.53;;;1.40;;
17173;SDS011;8702;48.130;-1.696;2022-08-01T10:13:53;1.57;;;1.47;;
17173;SDS011;8702;48.130;-1.696;2022-08-01T10:16:20;1.87;;;1.47;;
17173;SDS011;8702;48.130;-1.696;2022-08-01T10:18:48;1.90;;;1.27;;
17173;SDS011;8702;48.130;-1.696;2022-08-01T10:21:15;3.00;;;1.40;;
17173;SDS011;8702;48.130;-1.696;2022-08-01T10:23:43;1.30;;;1.20;;
17173;SDS011;8702;48.130;-1.696;2022-08-01T10:26:12;1.70;;;1.50;;
17173;SDS011;8702;48.130;-1.696;2022-08-01T10:28:40;1.80;;;1.60;;
17173;SDS011;8702;48.130;-1.696;2022-08-01T10:31:10;1.93;;;1.50;;
17173;SDS011;8702;48.130;-1.696;2022-08-01T10:33:38;2.20;;;1.37;;
17173;SDS011;8702;48.130;-1.696;2022-08-01T10:36:07;1.80;;;1.40;;
17173;SDS011;8702;48.130;-1.696;2022-08-01T10:38:35;3.50;;;1.50;;
17173;SDS011;8702;48.130;-1.696;2022-08-01T10:41:02;1.73;;;1.47;;
17173;SDS011;8702;48.130;-1.696;2022-08-01T10:43:31;1.63;;;1.50;;
17173;SDS011;8702;48.130;-1.696;2022-08-01T10:45:58;1.63;;;1.53;;
17173;SDS011;8702;48.130;-1.696;2022-08-01T10:48:26;2.47;;;1.40;;
17173;SDS011;8702;48.130;-1.696;2022-08-01T10:51:02;2.60;;;1.90;;
17173;SDS011;8702;48.130;-1.696;2022-08-01T10:53:30;1.80;;;1.70;;
17173;SDS011;8702;48.130;-1.696;2022-08-01T10:55:59;2.03;;;1.53;;
17173;SDS011;8702;48.130;-1.696;2022-08-01T10:58:28;2.07;;;1.57;;
17173;SDS011;8702;48.130;-1.696;2022-08-01T11:01:18;1.60;;;1.50;;
17173;SDS011;8702;48.130;-1.696;2022-08-01T11:03:56;4.37;;;1.60;;
17173;SDS011;8702;48.130;-1.696;2022-08-01T11:09:38;1.90;;;1.30;;
17173;SDS011;8702;48.130;-1.696;2022-08-01T11:12:07;1.43;;;1.33;;
17173;SDS011;8702;48.130;-1.696;2022-08-01T11:17:37;3.20;;;1.50;;
17173;SDS011;8702;48.130;-1.696;2022-08-01T11:20:09;1.97;;;1.70;;
17173;SDS011;8702;48.130;-1.696;2022-08-01T11:26:07;1.83;;;1.60;;
17173;SDS011;8702;48.130;-1.696;2022-08-01T11:28:35;2.80;;;1.60;;
17173;SDS011;8702;48.130;-1.696;2022-08-01T11:33:53;2.63;;;1.70;;
17173;SDS011;8702;48.130;-1.696;2022-08-01T11:36:20;1.57;;;1.47;;
17173;SDS011;8702;48.130;-1.696;2022-08-01T11:38:49;1.73;;;1.63;;
17173;SDS011;8702;48.130;-1.696;2022-08-01T11:41:37;2.03;;;1.60;;
17173;SDS011;8702;48.130;-1.696;2022-08-01T11:44:05;1.63;;;1.50;;
17173;SDS011;8702;48.130;-1.696;2022-08-01T11:46:49;4.00;;;1.87;;
17173;SDS011;8702;48.130;-1.696;2022-08-01T11:49:44;1.73;;;1.63;;
17173;SDS011;8702;48.130;-1.696;2022-08-01T11:52:15;2.83;;;1.50;;
17173;SDS011;8702;48.130;-1.696;2022-08-01T11:54:44;2.37;;;1.60;;
17173;SDS011;8702;48.130;-1.696;2022-08-01T11:57:13;4.17;;;1.70;;
17173;SDS011;8702;48.130;-1.696;2022-08-01T11:59:42;2.70;;;1.90;;
17173;SDS011;8702;48.130;-1.696;2022-08-01T12:05:00;1.77;;;1.67;;
17173;SDS011;8702;48.130;-1.696;2022-08-01T12:07:29;2.60;;;1.40;;
17173;SDS011;8702;48.130;-1.696;2022-08-01T12:09:59;2.33;;;1.60;;
17173;SDS011;8702;48.130;-1.696;2022-08-01T12:12:27;1.67;;;1.57;;
17173;SDS011;8702;48.130;-1.696;2022-08-01T12:14:55;1.83;;;1.37;;
17173;SDS011;8702;48.130;-1.696;2022-08-01T12:17:27;1.70;;;1.60;;
17173;SDS011;8702;48.130;-1.696;2022-08-01T12:19:55;1.97;;;1.50;;
17173;SDS011;8702;48.130;-1.696;2022-08-01T12:22:24;2.20;;;1.90;;
17173;SDS011;8702;48.130;-1.696;2022-08-01T12:24:51;3.17;;;1.90;;
17173;SDS011;8702;48.130;-1.696;2022-08-01T12:27:25;1.83;;;1.60;;
17173;SDS011;8702;48.130;-1.696;2022-08-01T12:29:53;1.93;;;1.50;;
17173;SDS011;8702;48.130;-1.696;2022-08-01T12:32:21;1.93;;;1.53;;
17173;SDS011;8702;48.130;-1.696;2022-08-01T12:34:50;1.93;;;1.60;;
17173;SDS011;8702;48.130;-1.696;2022-08-01T12:37:18;1.70;;;1.60;;
17173;SDS011;8702;48.130;-1.696;2022-08-01T12:39:47;2.73;;;1.70;;
17173;SDS011;8702;48.130;-1.696;2022-08-01T12:42:14;2.13;;;1.70;;
17173;SDS011;8702;48.130;-1.696;2022-08-01T12:44:42;2.00;;;1.63;;
17173;SDS011;8702;48.130;-1.696;2022-08-01T12:47:10;1.73;;;1.50;;
17173;SDS011;8702;48.130;-1.696;2022-08-01T12:49:38;2.07;;;1.43;;
17173;SDS011;8702;48.130;-1.696;2022-08-01T12:52:07;2.13;;;1.93;;
17173;SDS011;8702;48.130;-1.696;2022-08-01T12:57:29;3.57;;;1.67;;
17173;SDS011;8702;48.130;-1.696;2022-08-01T13:00:05;1.50;;;1.40;;
17173;SDS011;8702;48.130;-1.696;2022-08-01T13:02:35;2.37;;;1.60;;
17173;SDS011;8702;48.130;-1.696;2022-08-01T13:05:02;3.13;;;1.73;;
17173;SDS011;8702;48.130;-1.696;2022-08-01T13:07:36;3.40;;;1.60;;
17173;SDS011;8702;48.130;-1.696;2022-08-01T13:10:07;1.70;;;1.60;;
17173;SDS011;8702;48.130;-1.696;2022-08-01T13:12:35;3.23;;;1.57;;
17173;SDS011;8702;48.130;-1.696;2022-08-01T13:15:16;1.60;;;1.50;;
17173;SDS011;8702;48.130;-1.696;2022-08-01T13:17:56;2.97;;;1.30;;
17173;SDS011;8702;48.130;-1.696;2022-08-01T13:20:24;2.13;;;1.63;;
17173;SDS011;8702;48.130;-1.696;2022-08-01T13:22:53;3.47;;;1.90;;
17173;SDS011;8702;48.130;-1.696;2022-08-01T13:25:22;2.67;;;1.80;;
17173;SDS011;8702;48.130;-1.696;2022-08-01T13:27:49;3.00;;;1.90;;
17173;SDS011;8702;48.130;-1.696;2022-08-01T13:30:36;3.57;;;1.60;;
17173;SDS011;8702;48.130;-1.696;2022-08-01T13:33:03;1.57;;;1.47;;
17173;SDS011;8702;48.130;-1.696;2022-08-01T13:35:30;3.27;;;1.90;;
17173;SDS011;8702;48.130;-1.696;2022-08-01T13:37:57;2.40;;;1.40;;
17173;SDS011;8702;48.130;-1.696;2022-08-01T13:40:25;2.97;;;1.40;;
17173;SDS011;8702;48.130;-1.696;2022-08-01T13:42:54;1.50;;;1.40;;
17173;SDS011;8702;48.130;-1.696;2022-08-01T13:45:21;2.83;;;1.73;;
17173;SDS011;8702;48.130;-1.696;2022-08-01T13:47:49;1.73;;;1.50;;
17173;SDS011;8702;48.130;-1.696;2022-08-01T13:50:16;1.70;;;1.30;;
17173;SDS011;8702;48.130;-1.696;2022-08-01T13:52:43;2.53;;;1.50;;
17173;SDS011;8702;48.130;-1.696;2022-08-01T13:55:10;1.30;;;1.20;;
17173;SDS011;8702;48.130;-1.696;2022-08-01T13:57:38;3.33;;;1.57;;
17173;SDS011;8702;48.130;-1.696;2022-08-01T14:00:06;2.17;;;1.30;;
17173;SDS011;8702;48.130;-1.696;2022-08-01T14:02:34;1.40;;;1.27;;
17173;SDS011;8702;48.130;-1.696;2022-08-01T14:05:01;1.90;;;1.30;;
17173;SDS011;8702;48.130;-1.696;2022-08-01T14:07:29;2.17;;;1.50;;
17173;SDS011;8702;48.130;-1.696;2022-08-01T14:09:56;2.90;;;1.33;;
17173;SDS011;8702;48.130;-1.696;2022-08-01T14:12:23;1.87;;;1.40;;
17173;SDS011;8702;48.130;-1.696;2022-08-01T14:14:51;1.47;;;1.20;;
17173;SDS011;8702;48.130;-1.696;2022-08-01T14:17:18;1.40;;;1.30;;
17173;SDS011;8702;48.130;-1.696;2022-08-01T14:19:45;3.37;;;1.30;;
17173;SDS011;8702;48.130;-1.696;2022-08-01T14:22:12;1.43;;;1.30;;
17173;SDS011;8702;48.130;-1.696;2022-08-01T14:24:39;3.67;;;1.40;;
17173;SDS011;8702;48.130;-1.696;2022-08-01T14:27:06;1.87;;;1.27;;
17173;SDS011;8702;48.130;-1.696;2022-08-01T14:29:33;1.60;;;1.50;;
17173;SDS011;8702;48.130;-1.696;2022-08-01T14:32:02;2.30;;;1.23;;
17173;SDS011;8702;48.130;-1.696;2022-08-01T14:34:29;5.77;;;1.40;;
17173;SDS011;8702;48.130;-1.696;2022-08-01T14:36:56;1.53;;;1.33;;
17173;SDS011;8702;48.130;-1.696;2022-08-01T14:39:23;1.30;;;1.20;;
17173;SDS011;8702;48.130;-1.696;2022-08-01T14:41:50;1.40;;;1.00;;
17173;SDS011;8702;48.130;-1.696;2022-08-01T14:44:17;1.43;;;1.27;;
17173;SDS011;8702;48.130;-1.696;2022-08-01T14:46:44;1.20;;;1.10;;
17173;SDS011;8702;48.130;-1.696;2022-08-01T14:49:14;1.40;;;1.30;;
17173;SDS011;8702;48.130;-1.696;2022-08-01T14:51:41;1.83;;;1.30;;
17173;SDS011;8702;48.130;-1.696;2022-08-01T14:54:08;4.30;;;1.40;;
17173;SDS011;8702;48.130;-1.696;2022-08-01T14:56:35;1.27;;;1.17;;
17173;SDS011;8702;48.130;-1.696;2022-08-01T14:59:02;2.50;;;1.23;;
17173;SDS011;8702;48.130;-1.696;2022-08-01T15:01:29;2.67;;;1.30;;
17173;SDS011;8702;48.130;-1.696;2022-08-01T15:03:56;3.90;;;1.53;;
17173;SDS011;8702;48.130;-1.696;2022-08-01T15:06:24;2.10;;;1.33;;
17173;SDS011;8702;48.130;-1.696;2022-08-01T15:08:52;2.55;;;1.55;;
17173;SDS011;8702;48.130;-1.696;2022-08-01T15:11:18;1.55;;;1.40;;
17173;SDS011;8702;48.130;-1.696;2022-08-01T15:13:45;1.48;;;1.25;;
17173;SDS011;8702;48.130;-1.696;2022-08-01T15:16:34;3.77;;;1.60;;
17173;SDS011;8702;48.130;-1.696;2022-08-01T15:19:01;2.17;;;1.47;;
17173;SDS011;8702;48.130;-1.696;2022-08-01T15:21:29;1.60;;;1.40;;